sensor_id;sensor_type;location;lat;lon;timestamp;pressure;altitude;pressure_sealevel;temperature;humidity
50103;BME280;35993;52.604;10.078;2023-04-08T00:01:18;101854.94;;;6.27;93.19
50103;BME280;35993;52.604;10.078;2023-04-08T00:03:44;101860.81;;;6.22;93.81
50103;BME280;35993;52.604;10.078;2023-04-08T00:06:10;101855.41;;;6.22;94.18
50103;BME280;35993;52.604;10.078;2023-04-08T00:08:35;101866.03;;;6.23;94.94
50103;BME280;35993;52.604;10.078;2023-04-08T00:11:01;101863.16;;;6.17;95.91
50103;BME280;35993;52.604;10.078;2023-04-08T00:13:26;101869.38;;;6.17;96.78
50103;BME280;35993;52.604;10.078;2023-04-08T00:15:52;101861.44;;;6.16;96.68
50103;BME280;35993;52.604;10.078;2023-04-08T00:18:17;101853.34;;;6.16;97.08
50103;BME280;35993;52.604;10.078;2023-04-08T00:20:43;101859.59;;;6.16;97.18
50103;BME280;35993;52.604;10.078;2023-04-08T00:23:08;101857.59;;;6.18;97.85
50103;BME280;35993;52.604;10.078;2023-04-08T00:25:34;101862.44;;;6.15;97.75
50103;BME280;35993;52.604;10.078;2023-04-08T00:28:00;101859.22;;;6.11;97.27
50103;BME280;35993;52.604;10.078;2023-04-08T00:30:26;101855.34;;;6.14;98.47
50103;BME280;35993;52.604;10.078;2023-04-08T00:32:52;101855.06;;;6.17;99.27
50103;BME280;35993;52.604;10.078;2023-04-08T00:35:18;101855.88;;;6.17;98.88
50103;BME280;35993;52.604;10.078;2023-04-08T00:37:44;101854.84;;;6.10;98.47
50103;BME280;35993;52.604;10.078;2023-04-08T00:40:10;101855.00;;;6.09;98.50
50103;BME280;35993;52.604;10.078;2023-04-08T00:42:36;101854.69;;;6.12;98.58
50103;BME280;35993;52.604;10.078;2023-04-08T00:45:02;101859.22;;;6.11;99.24
50103;BME280;35993;52.604;10.078;2023-04-08T00:47:28;101861.91;;;6.11;99.72
50103;BME280;35993;52.604;10.078;2023-04-08T00:49:54;101856.53;;;6.11;99.99
50103;BME280;35993;52.604;10.078;2023-04-08T00:52:19;101853.31;;;6.07;99.77
50103;BME280;35993;52.604;10.078;2023-04-08T00:54:45;101861.91;;;6.11;100.00
50103;BME280;35993;52.604;10.078;2023-04-08T00:57:11;101858.06;;;6.14;100.00
50103;BME280;35993;52.604;10.078;2023-04-08T00:59:36;101859.38;;;6.10;100.00
50103;BME280;35993;52.604;10.078;2023-04-08T01:02:11;101864.09;;;6.07;100.00
50103;BME280;35993;52.604;10.078;2023-04-08T01:04:52;101858.56;;;6.09;100.00
50103;BME280;35993;52.604;10.078;2023-04-08T01:07:28;101862.63;;;6.13;100.00
50103;BME280;35993;52.604;10.078;2023-04-08T01:09:59;101855.16;;;6.07;100.00
50103;BME280;35993;52.604;10.078;2023-04-08T01:12:28;101861.25;;;6.09;100.00
50103;BME280;35993;52.604;10.078;2023-04-08T01:15:01;101853.00;;;6.11;100.00
50103;BME280;35993;52.604;10.078;2023-04-08T01:17:29;101855.34;;;6.14;100.00
50103;BME280;35993;52.604;10.078;2023-04-08T01:19:56;101853.00;;;6.11;100.00
50103;BME280;35993;52.604;10.078;2023-04-08T01:25:16;101842.84;;;6.04;100.00
50103;BME280;35993;52.604;10.078;2023-04-08T01:27:42;101845.69;;;6.03;100.00
50103;BME280;35993;52.604;10.078;2023-04-08T01:30:08;101844.88;;;6.02;100.00
50103;BME280;35993;52.604;10.078;2023-04-08T01:32:35;101834.75;;;6.04;100.00
50103;BME280;35993;52.604;10.078;2023-04-08T01:35:01;101831.38;;;6.02;100.00
50103;BME280;35993;52.604;10.078;2023-04-08T01:37:28;101838.63;;;6.02;100.00
50103;BME280;35993;52.604;10.078;2023-04-08T01:39:55;101824.47;;;6.00;100.00
50103;BME280;35993;52.604;10.078;2023-04-08T01:42:24;101833.06;;;6.03;100.00
50103;BME280;35993;52.604;10.078;2023-04-08T01:44:54;101827.84;;;6.02;100.00
50103;BME280;35993;52.604;10.078;2023-04-08T01:47:20;101834.38;;;5.99;100.00
50103;BME280;35993;52.604;10.078;2023-04-08T01:49:47;101828.59;;;5.94;100.00
50103;BME280;35993;52.604;10.078;2023-04-08T01:52:15;101835.38;;;5.98;100.00
50103;BME280;35993;52.604;10.078;2023-04-08T01:54:43;101840.78;;;5.98;100.00
50103;BME280;35993;52.604;10.078;2023-04-08T01:57:11;101838.44;;;6.03;100.00
50103;BME280;35993;52.604;10.078;2023-04-08T01:59:39;101831.53;;;6.01;100.00
50103;BME280;35993;52.604;10.078;2023-04-08T02:02:08;101827.66;;;6.03;100.00
50103;BME280;35993;52.604;10.078;2023-04-08T02:04:35;101832.22;;;6.03;100.00
50103;BME280;35993;52.604;10.078;2023-04-08T02:07:01;101826.84;;;6.03;100.00
50103;BME280;35993;52.604;10.078;2023-04-08T02:09:27;101832.56;;;6.00;100.00
50103;BME280;35993;52.604;10.078;2023-04-08T02:11:53;101830.84;;;5.99;100.00
50103;BME280;35993;52.604;10.078;2023-04-08T02:14:21;101833.69;;;5.97;100.00
50103;BME280;35993;52.604;10.078;2023-04-08T02:16:58;101830.28;;;5.95;100.00
50103;BME280;35993;52.604;10.078;2023-04-08T02:19:35;101834.44;;;5.89;100.00
50103;BME280;35993;52.604;10.078;2023-04-08T02:22:11;101835.53;;;5.97;100.00
50103;BME280;35993;52.604;10.078;2023-04-08T02:24:42;101847.03;;;5.99;100.00
50103;BME280;35993;52.604;10.078;2023-04-08T02:27:09;101846.03;;;6.00;100.00
50103;BME280;35993;52.604;10.078;2023-04-08T02:29:36;101847.56;;;6.02;100.00
50103;BME280;35993;52.604;10.078;2023-04-08T02:32:05;101849.56;;;6.00;100.00
50103;BME280;35993;52.604;10.078;2023-04-08T02:34:31;101847.03;;;5.99;100.00
50103;BME280;35993;52.604;10.078;2023-04-08T02:36:57;101844.78;;;5.94;100.00
50103;BME280;35993;52.604;10.078;2023-04-08T02:39:32;101852.47;;;5.89;100.00
50103;BME280;35993;52.604;10.078;2023-04-08T02:41:57;101845.03;;;5.83;100.00
50103;BME280;35993;52.604;10.078;2023-04-08T02:44:23;101849.25;;;5.85;100.00
50103;BME280;35993;52.604;10.078;2023-04-08T02:46:49;101847.44;;;5.86;100.00
50103;BME280;35993;52.604;10.078;2023-04-08T02:49:15;101848.63;;;5.91;100.00
50103;BME280;35993;52.604;10.078;2023-04-08T02:51:40;101855.72;;;5.93;100.00
50103;BME280;35993;52.604;10.078;2023-04-08T02:54:06;101850.25;;;5.84;100.00
50103;BME280;35993;52.604;10.078;2023-04-08T02:56:31;101855.63;;;5.84;100.00
50103;BME280;35993;52.604;10.078;2023-04-08T02:58:57;101854.97;;;5.82;100.00
50103;BME280;35993;52.604;10.078;2023-04-08T03:01:22;101854.09;;;5.82;100.00
50103;BME280;35993;52.604;10.078;2023-04-08T03:03:49;101857.66;;;5.82;100.00
50103;BME280;35993;52.604;10.078;2023-04-08T03:06:14;101855.13;;;5.81;100.00
50103;BME280;35993;52.604;10.078;2023-04-08T03:08:40;101851.41;;;5.82;100.00
50103;BME280;35993;52.604;10.078;2023-04-08T03:11:05;101857.66;;;5.82;100.00
50103;BME280;35993;52.604;10.078;2023-04-08T03:13:31;101861.19;;;5.83;100.00
50103;BME280;35993;52.604;10.078;2023-04-08T03:15:57;101874.00;;;5.81;100.00
50103;BME280;35993;52.604;10.078;2023-04-08T03:18:23;101870.28;;;5.82;100.00
50103;BME280;35993;52.604;10.078;2023-04-08T03:20:48;101861.91;;;5.85;100.00
50103;BME280;35993;52.604;10.078;2023-04-08T03:23:14;101871.69;;;5.86;100.00
50103;BME280;35993;52.604;10.078;2023-04-08T03:25:40;101870.81;;;5.85;100.00
50103;BME280;35993;52.604;10.078;2023-04-08T03:28:06;101865.59;;;5.84;100.00
50103;BME280;35993;52.604;10.078;2023-04-08T03:30:31;101868.13;;;5.85;100.00
50103;BME280;35993;52.604;10.078;2023-04-08T03:32:57;101863.22;;;5.81;100.00
50103;BME280;35993;52.604;10.078;2023-04-08T03:35:22;101864.75;;;5.83;100.00
50103;BME280;35993;52.604;10.078;2023-04-08T03:37:48;101866.28;;;5.86;100.00
50103;BME280;35993;52.604;10.078;2023-04-08T03:40:14;101870.28;;;5.82;100.00
50103;BME280;35993;52.604;10.078;2023-04-08T03:42:39;101871.13;;;5.82;100.00
50103;BME280;35993;52.604;10.078;2023-04-08T03:45:05;101870.16;;;5.83;100.00
50103;BME280;35993;52.604;10.078;2023-04-08T03:47:31;101865.59;;;5.84;100.00
50103;BME280;35993;52.604;10.078;2023-04-08T03:49:56;101861.91;;;5.85;100.00
50103;BME280;35993;52.604;10.078;2023-04-08T03:52:23;101869.81;;;5.86;100.00
50103;BME280;35993;52.604;10.078;2023-04-08T03:54:49;101881.59;;;5.85;100.00
50103;BME280;35993;52.604;10.078;2023-04-08T03:57:14;101874.50;;;5.84;100.00
50103;BME280;35993;52.604;10.078;2023-04-08T03:59:40;101881.28;;;5.88;100.00
50103;BME280;35993;52.604;10.078;2023-04-08T04:02:06;101884.13;;;5.87;100.00
50103;BME280;35993;52.604;10.078;2023-04-08T04:04:31;101877.75;;;5.88;100.00
50103;BME280;35993;52.604;10.078;2023-04-08T04:06:58;101879.38;;;5.81;100.00
50103;BME280;35993;52.604;10.078;2023-04-08T04:09:23;101877.00;;;5.78;100.00
50103;BME280;35993;52.604;10.078;2023-04-08T04:11:49;101882.75;;;5.83;100.00
50103;BME280;35993;52.604;10.078;2023-04-08T04:14:14;101890.16;;;5.81;100.00
50103;BME280;35993;52.604;10.078;2023-04-08T04:16:40;101883.06;;;5.80;100.00
50103;BME280;35993;52.604;10.078;2023-04-08T04:19:05;101885.94;;;5.78;100.00
50103;BME280;35993;52.604;10.078;2023-04-08T04:21:31;101898.38;;;5.79;100.00
50103;BME280;35993;52.604;10.078;2023-04-08T04:23:56;101895.22;;;5.84;100.00
50103;BME280;35993;52.604;10.078;2023-04-08T04:26:22;101892.22;;;5.87;100.00
50103;BME280;35993;52.604;10.078;2023-04-08T04:28:47;101897.47;;;5.88;100.00
50103;BME280;35993;52.604;10.078;2023-04-08T04:31:20;101900.28;;;5.87;100.00
50103;BME280;35993;52.604;10.078;2023-04-08T04:33:47;101894.78;;;5.88;100.00
50103;BME280;35993;52.604;10.078;2023-04-08T04:36:13;101901.44;;;5.84;100.00
50103;BME280;35993;52.604;10.078;2023-04-08T04:38:39;101908.53;;;5.85;100.00
50103;BME280;35993;52.604;10.078;2023-04-08T04:41:04;101907.72;;;5.85;100.00
50103;BME280;35993;52.604;10.078;2023-04-08T04:43:30;101910.25;;;5.86;100.00
50103;BME280;35993;52.604;10.078;2023-04-08T04:45:55;101911.94;;;5.87;100.00
50103;BME280;35993;52.604;10.078;2023-04-08T04:48:22;101919.69;;;5.90;100.00
50103;BME280;35993;52.604;10.078;2023-04-08T04:50:55;101923.38;;;5.89;100.00
50103;BME280;35993;52.604;10.078;2023-04-08T04:53:20;101926.25;;;5.88;100.00
50103;BME280;35993;52.604;10.078;2023-04-08T04:55:46;101920.31;;;5.84;100.00
50103;BME280;35993;52.604;10.078;2023-04-08T04:58:12;101932.13;;;5.83;100.00
50103;BME280;35993;52.604;10.078;2023-04-08T05:00:37;101926.56;;;5.85;100.00
50103;BME280;35993;52.604;10.078;2023-04-08T05:03:03;101927.72;;;5.82;100.00
50103;BME280;35993;52.604;10.078;2023-04-08T05:05:28;101932.41;;;5.80;100.00
50103;BME280;35993;52.604;10.078;2023-04-08T05:07:54;101934.44;;;5.78;100.00
50103;BME280;35993;52.604;10.078;2023-04-08T05:10:19;101937.13;;;5.78;100.00
50103;BME280;35993;52.604;10.078;2023-04-08T05:12:45;101932.41;;;5.80;100.00
50103;BME280;35993;52.604;10.078;2023-04-08T05:15:11;101931.97;;;5.85;100.00
50103;BME280;35993;52.604;10.078;2023-04-08T05:17:36;101937.91;;;5.88;100.00
50103;BME280;35993;52.604;10.078;2023-04-08T05:20:02;101942.59;;;5.86;100.00
50103;BME280;35993;52.604;10.078;2023-04-08T05:22:27;101940.22;;;5.83;100.00
50103;BME280;35993;52.604;10.078;2023-04-08T05:24:53;101936.66;;;5.83;100.00
50103;BME280;35993;52.604;10.078;2023-04-08T05:27:18;101943.91;;;5.82;100.00
50103;BME280;35993;52.604;10.078;2023-04-08T05:29:46;101948.59;;;5.80;100.00
50103;BME280;35993;52.604;10.078;2023-04-08T05:32:12;101946.50;;;5.74;100.00
50103;BME280;35993;52.604;10.078;2023-04-08T05:34:37;101947.38;;;5.74;100.00
50103;BME280;35993;52.604;10.078;2023-04-08T05:37:03;101941.13;;;5.74;100.00
50103;BME280;35993;52.604;10.078;2023-04-08T05:39:28;101950.59;;;5.78;100.00
50103;BME280;35993;52.604;10.078;2023-04-08T05:41:54;101949.75;;;5.78;100.00
50103;BME280;35993;52.604;10.078;2023-04-08T05:44:19;101950.53;;;5.70;100.00
50103;BME280;35993;52.604;10.078;2023-04-08T05:46:45;101959.69;;;5.77;100.00
50103;BME280;35993;52.604;10.078;2023-04-08T05:49:11;101958.53;;;5.80;100.00
50103;BME280;35993;52.604;10.078;2023-04-08T05:51:38;101964.13;;;5.86;100.00
50103;BME280;35993;52.604;10.078;2023-04-08T05:54:03;101964.84;;;5.88;100.00
50103;BME280;35993;52.604;10.078;2023-04-08T05:56:29;101967.00;;;5.85;100.00
50103;BME280;35993;52.604;10.078;2023-04-08T05:58:57;101967.16;;;5.83;100.00
50103;BME280;35993;52.604;10.078;2023-04-08T06:01:22;101967.44;;;5.80;100.00
50103;BME280;35993;52.604;10.078;2023-04-08T06:03:48;101968.59;;;5.78;100.00
50103;BME280;35993;52.604;10.078;2023-04-08T06:06:13;101977.00;;;5.74;100.00
50103;BME280;35993;52.604;10.078;2023-04-08T06:08:39;101977.19;;;5.73;100.00
50103;BME280;35993;52.604;10.078;2023-04-08T06:11:05;101970.75;;;5.74;100.00
50103;BME280;35993;52.604;10.078;2023-04-08T06:13:31;101975.84;;;5.77;100.00
50103;BME280;35993;52.604;10.078;2023-04-08T06:15:56;101976.53;;;5.79;100.00
50103;BME280;35993;52.604;10.078;2023-04-08T06:18:22;101991.53;;;5.82;100.00
50103;BME280;35993;52.604;10.078;2023-04-08T06:20:48;101992.84;;;5.78;100.00
50103;BME280;35993;52.604;10.078;2023-04-08T06:23:14;101991.03;;;5.78;100.00
50103;BME280;35993;52.604;10.078;2023-04-08T06:25:39;101996.56;;;5.77;100.00
50103;BME280;35993;52.604;10.078;2023-04-08T06:28:06;102002.81;;;5.77;100.00
50103;BME280;35993;52.604;10.078;2023-04-08T06:30:31;102001.94;;;5.77;100.00
50103;BME280;35993;52.604;10.078;2023-04-08T06:32:57;101998.09;;;5.79;100.00
50103;BME280;35993;52.604;10.078;2023-04-08T06:35:22;101997.81;;;5.82;100.00
50103;BME280;35993;52.604;10.078;2023-04-08T06:37:48;101992.09;;;5.85;100.00
50103;BME280;35993;52.604;10.078;2023-04-08T06:40:13;102004.72;;;5.85;100.00
50103;BME280;35993;52.604;10.078;2023-04-08T06:42:39;102006.44;;;5.86;100.00
50103;BME280;35993;52.604;10.078;2023-04-08T06:45:33;102006.81;;;5.91;100.00
50103;BME280;35993;52.604;10.078;2023-04-08T06:47:59;102012.28;;;5.99;100.00
50103;BME280;35993;52.604;10.078;2023-04-08T06:50:24;102017.22;;;6.04;100.00
50103;BME280;35993;52.604;10.078;2023-04-08T06:52:50;102016.53;;;6.02;100.00
50103;BME280;35993;52.604;10.078;2023-04-08T06:55:16;102023.22;;;5.98;100.00
50103;BME280;35993;52.604;10.078;2023-04-08T06:57:41;102024.19;;;5.97;100.00
50103;BME280;35993;52.604;10.078;2023-04-08T07:00:07;102020.09;;;6.02;100.00
50103;BME280;35993;52.604;10.078;2023-04-08T07:02:33;102026.69;;;6.08;100.00
50103;BME280;35993;52.604;10.078;2023-04-08T07:04:58;102026.88;;;6.06;100.00
50103;BME280;35993;52.604;10.078;2023-04-08T07:07:24;102031.09;;;6.09;100.00
50103;BME280;35993;52.604;10.078;2023-04-08T07:09:50;102032.41;;;6.05;100.00
50103;BME280;35993;52.604;10.078;2023-04-08T07:12:16;102036.50;;;6.09;100.00
50103;BME280;35993;52.604;10.078;2023-04-08T07:14:42;102033.63;;;6.11;100.00
50103;BME280;35993;52.604;10.078;2023-04-08T07:17:07;102027.91;;;6.14;100.00
50103;BME280;35993;52.604;10.078;2023-04-08T07:19:33;102028.78;;;6.14;100.00
50103;BME280;35993;52.604;10.078;2023-04-08T07:21:58;102036.25;;;6.20;100.00
50103;BME280;35993;52.604;10.078;2023-04-08T07:24:24;102026.31;;;6.21;100.00
50103;BME280;35993;52.604;10.078;2023-04-08T07:26:49;102025.84;;;6.26;100.00
50103;BME280;35993;52.604;10.078;2023-04-08T07:29:15;102028.38;;;6.27;100.00
50103;BME280;35993;52.604;10.078;2023-04-08T07:31:44;102026.50;;;6.28;100.00
50103;BME280;35993;52.604;10.078;2023-04-08T07:34:09;102026.00;;;6.24;100.00
50103;BME280;35993;52.604;10.078;2023-04-08T07:36:35;102034.22;;;6.22;100.00
50103;BME280;35993;52.604;10.078;2023-04-08T07:39:01;102030.38;;;6.25;100.00
50103;BME280;35993;52.604;10.078;2023-04-08T07:41:27;102028.53;;;6.26;100.00
50103;BME280;35993;52.604;10.078;2023-04-08T07:43:53;102037.00;;;6.31;100.00
50103;BME280;35993;52.604;10.078;2023-04-08T07:46:18;102032.44;;;6.31;100.00
50103;BME280;35993;52.604;10.078;2023-04-08T07:48:45;102030.63;;;6.32;100.00
50103;BME280;35993;52.604;10.078;2023-04-08T07:51:10;102044.78;;;6.34;100.00
50103;BME280;35993;52.604;10.078;2023-04-08T07:53:36;102038.06;;;6.38;100.00
50103;BME280;35993;52.604;10.078;2023-04-08T07:56:10;102042.66;;;6.46;100.00
50103;BME280;35993;52.604;10.078;2023-04-08T07:58:35;102046.06;;;6.48;100.00
50103;BME280;35993;52.604;10.078;2023-04-08T08:01:01;102043.81;;;6.43;100.00
50103;BME280;35993;52.604;10.078;2023-04-08T08:03:26;102052.94;;;6.42;100.00
50103;BME280;35993;52.604;10.078;2023-04-08T08:05:52;102065.56;;;6.42;100.00
50103;BME280;35993;52.604;10.078;2023-04-08T08:08:17;102066.94;;;6.46;100.00
50103;BME280;35993;52.604;10.078;2023-04-08T08:10:43;102062.97;;;6.50;100.00
50103;BME280;35993;52.604;10.078;2023-04-08T08:13:08;102074.03;;;6.47;100.00
50103;BME280;35993;52.604;10.078;2023-04-08T08:15:34;102065.72;;;6.40;100.00
50103;BME280;35993;52.604;10.078;2023-04-08T08:18:00;102074.81;;;6.39;100.00
50103;BME280;35993;52.604;10.078;2023-04-08T08:20:26;102077.34;;;6.40;100.00
50103;BME280;35993;52.604;10.078;2023-04-08T08:22:51;102075.81;;;6.38;100.00
50103;BME280;35993;52.604;10.078;2023-04-08T08:25:17;102078.75;;;6.45;100.00
50103;BME280;35993;52.604;10.078;2023-04-08T08:27:42;102077.28;;;6.50;100.00
50103;BME280;35993;52.604;10.078;2023-04-08T08:30:09;102079.97;;;6.50;100.00
50103;BME280;35993;52.604;10.078;2023-04-08T08:32:35;102077.19;;;6.60;100.00
50103;BME280;35993;52.604;10.078;2023-04-08T08:35:01;102084.13;;;6.63;100.00
50103;BME280;35993;52.604;10.078;2023-04-08T08:37:26;102083.13;;;6.64;100.00
50103;BME280;35993;52.604;10.078;2023-04-08T08:39:52;102087.03;;;6.69;100.00
50103;BME280;35993;52.604;10.078;2023-04-08T08:42:24;102093.19;;;6.80;100.00
50103;BME280;35993;52.604;10.078;2023-04-08T08:44:50;102099.31;;;6.90;100.00
50103;BME280;35993;52.604;10.078;2023-04-08T08:47:16;102097.41;;;6.82;100.00
50103;BME280;35993;52.604;10.078;2023-04-08T08:49:43;102098.59;;;6.80;100.00
50103;BME280;35993;52.604;10.078;2023-04-08T08:52:09;102103.97;;;6.80;100.00
50103;BME280;35993;52.604;10.078;2023-04-08T08:54:36;102107.38;;;6.82;100.00
50103;BME280;35993;52.604;10.078;2023-04-08T08:57:02;102105.72;;;6.89;100.00
50103;BME280;35993;52.604;10.078;2023-04-08T08:59:28;102108.59;;;6.87;100.00
50103;BME280;35993;52.604;10.078;2023-04-08T09:01:53;102117.56;;;6.88;100.00
50103;BME280;35993;52.604;10.078;2023-04-08T09:04:20;102120.38;;;6.86;100.00
50103;BME280;35993;52.604;10.078;2023-04-08T09:06:48;102125.94;;;6.85;100.00
50103;BME280;35993;52.604;10.078;2023-04-08T09:09:17;102124.94;;;6.86;100.00
50103;BME280;35993;52.604;10.078;2023-04-08T09:11:44;102120.91;;;6.90;100.00
50103;BME280;35993;52.604;10.078;2023-04-08T09:14:24;102117.00;;;6.84;100.00
50103;BME280;35993;52.604;10.078;2023-04-08T09:16:50;102113.69;;;6.91;100.00
50103;BME280;35993;52.604;10.078;2023-04-08T09:19:17;102113.53;;;6.92;100.00
50103;BME280;35993;52.604;10.078;2023-04-08T09:21:42;102121.09;;;6.88;100.00
50103;BME280;35993;52.604;10.078;2023-04-08T09:24:09;102125.47;;;6.89;100.00
50103;BME280;35993;52.604;10.078;2023-04-08T09:26:50;102114.56;;;6.99;100.00
50103;BME280;35993;52.604;10.078;2023-04-08T09:29:16;102116.38;;;6.91;100.00
50103;BME280;35993;52.604;10.078;2023-04-08T09:31:41;102125.84;;;6.95;100.00
50103;BME280;35993;52.604;10.078;2023-04-08T09:34:15;102115.06;;;6.95;100.00
50103;BME280;35993;52.604;10.078;2023-04-08T09:36:50;102118.00;;;6.83;100.00
50103;BME280;35993;52.604;10.078;2023-04-08T09:39:15;102125.78;;;6.86;100.00
50103;BME280;35993;52.604;10.078;2023-04-08T09:41:42;102132.25;;;6.94;100.00
50103;BME280;35993;52.604;10.078;2023-04-08T09:44:09;102131.72;;;6.90;100.00
50103;BME280;35993;52.604;10.078;2023-04-08T09:49:33;102142.47;;;6.82;100.00
50103;BME280;35993;52.604;10.078;2023-04-08T09:52:14;102151.88;;;6.78;100.00
50103;BME280;35993;52.604;10.078;2023-04-08T09:54:54;102146.72;;;6.84;100.00
50103;BME280;35993;52.604;10.078;2023-04-08T09:57:40;102146.53;;;6.86;100.00
50103;BME280;35993;52.604;10.078;2023-04-08T10:00:16;102152.69;;;6.96;100.00
50103;BME280;35993;52.604;10.078;2023-04-08T10:03:03;102163.03;;;7.01;100.00
50103;BME280;35993;52.604;10.078;2023-04-08T10:05:32;102160.53;;;7.08;100.00
50103;BME280;35993;52.604;10.078;2023-04-08T10:08:00;102154.59;;;7.04;100.00
50103;BME280;35993;52.604;10.078;2023-04-08T10:10:26;102154.97;;;7.09;100.00
50103;BME280;35993;52.604;10.078;2023-04-08T10:12:52;102158.75;;;7.16;100.00
50103;BME280;35993;52.604;10.078;2023-04-08T10:15:27;102156.72;;;7.18;100.00
50103;BME280;35993;52.604;10.078;2023-04-08T10:23:01;102158.56;;;7.18;100.00
50103;BME280;35993;52.604;10.078;2023-04-08T10:25:34;102149.09;;;7.14;100.00
50103;BME280;35993;52.604;10.078;2023-04-08T10:30:45;102154.75;;;7.29;100.00
50103;BME280;35993;52.604;10.078;2023-04-08T10:33:14;102164.72;;;7.28;100.00
50103;BME280;35993;52.604;10.078;2023-04-08T10:35:48;102161.38;;;7.34;100.00
50103;BME280;35993;52.604;10.078;2023-04-08T10:38:17;102155.44;;;7.31;100.00
50103;BME280;35993;52.604;10.078;2023-04-08T10:40:43;102149.25;;;7.38;100.00
50103;BME280;35993;52.604;10.078;2023-04-08T10:43:12;102156.88;;;7.43;100.00
50103;BME280;35993;52.604;10.078;2023-04-08T10:45:39;102156.19;;;7.41;100.00
50103;BME280;35993;52.604;10.078;2023-04-08T10:48:19;102155.66;;;7.37;100.00
50103;BME280;35993;52.604;10.078;2023-04-08T10:53:31;102161.25;;;7.44;100.00
50103;BME280;35993;52.604;10.078;2023-04-08T10:56:04;102158.84;;;7.33;100.00
50103;BME280;35993;52.604;10.078;2023-04-08T10:58:31;102151.94;;;7.38;100.00
50103;BME280;35993;52.604;10.078;2023-04-08T11:01:03;102146.22;;;7.42;100.00
50103;BME280;35993;52.604;10.078;2023-04-08T11:03:31;102148.44;;;7.46;100.00
50103;BME280;35993;52.604;10.078;2023-04-08T11:05:59;102154.03;;;7.53;100.00
50103;BME280;35993;52.604;10.078;2023-04-08T11:08:31;102155.53;;;7.47;100.00
50103;BME280;35993;52.604;10.078;2023-04-08T11:11:00;102153.66;;;7.48;100.00
50103;BME280;35993;52.604;10.078;2023-04-08T11:13:27;102163.47;;;7.49;100.00
50103;BME280;35993;52.604;10.078;2023-04-08T11:15:56;102172.59;;;7.48;100.00
50103;BME280;35993;52.604;10.078;2023-04-08T11:18:22;102177.16;;;7.47;100.00
50103;BME280;35993;52.604;10.078;2023-04-08T11:20:49;102182.88;;;7.44;100.00
50103;BME280;35993;52.604;10.078;2023-04-08T11:23:16;102184.03;;;7.42;100.00
50103;BME280;35993;52.604;10.078;2023-04-08T11:25:42;102182.72;;;7.46;100.00
50103;BME280;35993;52.604;10.078;2023-04-08T11:28:10;102179.97;;;7.37;100.00
50103;BME280;35993;52.604;10.078;2023-04-08T11:30:36;102185.56;;;7.44;100.00
50103;BME280;35993;52.604;10.078;2023-04-08T11:33:02;102183.91;;;7.43;100.00
50103;BME280;35993;52.604;10.078;2023-04-08T11:35:28;102180.31;;;7.43;100.00
50103;BME280;35993;52.604;10.078;2023-04-08T11:37:55;102181.19;;;7.43;100.00
50103;BME280;35993;52.604;10.078;2023-04-08T11:40:21;102177.63;;;7.43;100.00
50103;BME280;35993;52.604;10.078;2023-04-08T11:42:48;102185.16;;;7.31;100.00
50103;BME280;35993;52.604;10.078;2023-04-08T11:45:15;102180.41;;;7.25;100.00
50103;BME280;35993;52.604;10.078;2023-04-08T11:47:42;102174.34;;;7.31;100.00
50103;BME280;35993;52.604;10.078;2023-04-08T11:50:09;102180.81;;;7.38;100.00
50103;BME280;35993;52.604;10.078;2023-04-08T11:55:10;102176.31;;;7.47;100.00
50103;BME280;35993;52.604;10.078;2023-04-08T11:57:37;102177.69;;;7.51;100.00
50103;BME280;35993;52.604;10.078;2023-04-08T12:00:05;102185.47;;;7.54;100.00
50103;BME280;35993;52.604;10.078;2023-04-08T12:02:36;102184.78;;;7.52;100.00
50103;BME280;35993;52.604;10.078;2023-04-08T12:05:01;102179.75;;;7.57;100.00
50103;BME280;35993;52.604;10.078;2023-04-08T12:07:27;102182.66;;;7.64;100.00
50103;BME280;35993;52.604;10.078;2023-04-08T12:09:53;102182.28;;;7.59;100.00
50103;BME280;35993;52.604;10.078;2023-04-08T12:12:19;102182.22;;;7.50;100.00
50103;BME280;35993;52.604;10.078;2023-04-08T12:14:45;102188.66;;;7.49;100.00
50103;BME280;35993;52.604;10.078;2023-04-08T12:17:10;102183.56;;;7.46;100.00
50103;BME280;35993;52.604;10.078;2023-04-08T12:19:36;102185.78;;;7.51;100.00
50103;BME280;35993;52.604;10.078;2023-04-08T12:22:02;102194.44;;;7.54;100.00
50103;BME280;35993;52.604;10.078;2023-04-08T12:24:27;102193.28;;;7.57;100.00
50103;BME280;35993;52.604;10.078;2023-04-08T12:26:53;102188.00;;;7.55;100.00
50103;BME280;35993;52.604;10.078;2023-04-08T12:29:18;102180.75;;;7.56;100.00
50103;BME280;35993;52.604;10.078;2023-04-08T12:31:44;102194.09;;;7.58;100.00
50103;BME280;35993;52.604;10.078;2023-04-08T12:34:10;102191.06;;;7.61;100.00
50103;BME280;35993;52.604;10.078;2023-04-08T12:36:35;102192.22;;;7.58;100.00
50103;BME280;35993;52.604;10.078;2023-04-08T12:39:02;102185.47;;;7.54;100.00
50103;BME280;35993;52.604;10.078;2023-04-08T12:41:27;102181.75;;;7.55;100.00
50103;BME280;35993;52.604;10.078;2023-04-08T12:43:53;102186.69;;;7.60;100.00
50103;BME280;35993;52.604;10.078;2023-04-08T12:46:18;102181.16;;;7.69;100.00
50103;BME280;35993;52.604;10.078;2023-04-08T12:48:44;102179.31;;;7.70;100.00
50103;BME280;35993;52.604;10.078;2023-04-08T12:51:10;102178.31;;;7.79;100.00
50103;BME280;35993;52.604;10.078;2023-04-08T12:53:36;102178.28;;;7.71;100.00
50103;BME280;35993;52.604;10.078;2023-04-08T12:56:01;102186.88;;;7.66;100.00
50103;BME280;35993;52.604;10.078;2023-04-08T12:58:27;102186.56;;;7.69;100.00